Time;durP1;ratioP1;P1;durP2;ratioP2;P2;SDS_P1;SDS_P2;PMS_P1;PMS_P2;Temp;Humidity;BMP_temperature;BMP_pressure;BME280_temperature;BME280_humidity;BME280_pressure;Samples;Min_cycle;Max_cycle;Signal;HPM_P1;HPM_P2
2021/08/06 00:00:31;;;;;;;2.87;1.53;;;17.40;91.00;;;;;;4991993;28;20777;-75
2021/08/06 00:02:57;;;;;;;1.70;1.20;;;17.50;91.10;;;;;;4988512;28;20645;-76
2021/08/06 00:05:23;;;;;;;2.33;1.63;;;17.50;90.90;;;;;;4990280;28;20210;-76
2021/08/06 00:07:49;;;;;;;1.47;1.40;;;17.40;91.00;;;;;;4987699;28;20456;-76
2021/08/06 00:10:15;;;;;;;2.23;1.50;;;17.40;90.90;;;;;;4990775;28;20187;-76
2021/08/06 00:12:41;;;;;;;3.20;1.37;;;17.40;91.00;;;;;;4986034;28;20191;-75
2021/08/06 00:15:07;;;;;;;2.40;1.87;;;17.40;90.80;;;;;;4986151;28;20430;-74
2021/08/06 00:17:33;;;;;;;2.70;1.80;;;17.40;90.70;;;;;;4992520;28;20432;-75
2021/08/06 00:19:59;;;;;;;3.90;1.60;;;17.40;90.60;;;;;;4982865;28;20446;-74
2021/08/06 00:22:24;;;;;;;2.67;1.60;;;17.40;90.40;;;;;;4990228;28;20865;-75
2021/08/06 00:24:50;;;;;;;2.43;1.20;;;17.40;90.30;;;;;;4988349;28;20190;-76
2021/08/06 00:27:16;;;;;;;2.67;1.40;;;17.50;90.00;;;;;;4989988;28;20245;-74
2021/08/06 00:29:41;;;;;;;4.27;1.37;;;17.50;89.90;;;;;;4985979;28;20202;-73
2021/08/06 00:32:07;;;;;;;2.40;1.50;;;17.50;89.90;;;;;;4993028;28;20189;-75
2021/08/06 00:34:33;;;;;;;2.10;1.40;;;17.50;89.90;;;;;;4984285;28;20191;-75
2021/08/06 00:36:59;;;;;;;2.70;1.57;;;17.40;90.10;;;;;;4986999;28;20582;-74
2021/08/06 00:39:24;;;;;;;1.90;1.50;;;17.40;90.10;;;;;;4990080;28;20305;-74
2021/08/06 00:41:50;;;;;;;2.60;1.27;;;17.30;90.20;;;;;;4987230;28;20689;-74
2021/08/06 00:44:16;;;;;;;2.30;1.70;;;17.30;90.30;;;;;;4990635;28;20618;-76
2021/08/06 00:46:42;;;;;;;1.67;1.13;;;17.30;90.50;;;;;;4986634;28;20451;-74
2021/08/06 00:49:08;;;;;;;2.83;1.40;;;17.20;90.50;;;;;;4987874;28;20211;-75
2021/08/06 00:51:34;;;;;;;3.00;1.47;;;17.20;90.70;;;;;;4993410;28;20523;-75
2021/08/06 00:53:59;;;;;;;3.00;1.50;;;17.10;90.90;;;;;;4984429;28;20511;-76
2021/08/06 00:56:26;;;;;;;2.60;1.33;;;17.10;91.10;;;;;;4991761;28;20288;-74
2021/08/06 00:58:53;;;;;;;2.07;1.50;;;17.00;90.90;;;;;;4984352;28;20867;-75
2021/08/06 01:01:20;;;;;;;2.90;1.63;;;17.10;90.90;;;;;;4996780;28;20472;-74
2021/08/06 01:04:10;;;;;;;1.80;1.10;;;17.10;90.50;;;;;;4993521;28;20425;-75
2021/08/06 01:06:45;;;;;;;1.70;1.23;;;17.10;90.40;;;;;;4991498;28;20954;-75
2021/08/06 01:09:29;;;;;;;3.40;1.70;;;17.10;90.10;;;;;;4992719;28;20499;-75
2021/08/06 01:12:02;;;;;;;1.83;1.50;;;17.20;90.00;;;;;;4992929;28;20421;-74
2021/08/06 01:14:29;;;;;;;2.33;1.57;;;17.20;89.70;;;;;;4991760;28;20422;-76
2021/08/06 01:16:57;;;;;;;2.10;1.63;;;17.20;89.60;;;;;;4986288;28;20440;-75
2021/08/06 01:19:36;;;;;;;1.70;1.60;;;17.30;89.20;;;;;;4991607;28;20444;-74
2021/08/06 01:22:19;;;;;;;2.63;1.50;;;17.30;89.20;;;;;;4988292;28;20959;-74
2021/08/06 01:24:54;;;;;;;1.83;1.50;;;17.30;89.20;;;;;;4988480;28;20992;-73
2021/08/06 01:27:20;;;;;;;2.57;1.50;;;17.20;89.30;;;;;;4989187;28;20437;-74
2021/08/06 01:29:46;;;;;;;2.23;1.50;;;17.20;88.90;;;;;;4985288;28;20449;-74
2021/08/06 01:32:12;;;;;;;4.03;1.80;;;17.20;88.90;;;;;;4989016;28;20530;-75
2021/08/06 01:34:37;;;;;;;4.30;1.90;;;17.30;89.00;;;;;;4990768;28;20196;-76
2021/08/06 01:37:03;;;;;;;2.10;1.57;;;17.30;88.60;;;;;;4987944;28;20198;-74
2021/08/06 01:39:29;;;;;;;2.70;1.40;;;17.30;88.70;;;;;;4991008;28;20211;-75
2021/08/06 01:42:02;;;;;;;1.90;1.43;;;17.40;88.70;;;;;;4991749;28;20402;-75
2021/08/06 01:44:40;;;;;;;3.10;1.73;;;17.40;88.60;;;;;;4991691;28;20209;-74
2021/08/06 01:47:14;;;;;;;3.83;1.60;;;17.40;88.00;;;;;;4989938;28;20439;-75
2021/08/06 01:49:57;;;;;;;2.90;1.93;;;17.50;87.80;;;;;;4987120;28;20839;-75
2021/08/06 01:52:27;;;;;;;2.47;1.50;;;17.50;87.60;;;;;;4984934;28;20917;-75
2021/08/06 01:54:54;;;;;;;3.80;1.90;;;17.50;87.70;;;;;;4985762;28;20426;-76
2021/08/06 01:57:23;;;;;;;4.57;1.80;;;17.50;87.70;;;;;;4987696;28;20878;-74
2021/08/06 01:59:49;;;;;;;3.53;1.93;;;17.50;87.30;;;;;;4985296;28;20856;-76
2021/08/06 02:02:15;;;;;;;1.77;1.67;;;17.50;87.30;;;;;;4985803;28;20616;-75
2021/08/06 02:04:41;;;;;;;3.00;2.03;;;17.50;87.10;;;;;;4991914;28;20422;-75
2021/08/06 02:07:07;;;;;;;3.23;1.67;;;17.60;86.80;;;;;;4991774;28;20440;-76
2021/08/06 02:09:37;;;;;;;2.27;1.63;;;17.60;86.80;;;;;;4990825;28;20576;-75
2021/08/06 02:12:03;;;;;;;2.00;1.60;;;17.60;86.90;;;;;;4992364;28;20429;-75
2021/08/06 02:14:28;;;;;;;2.60;1.90;;;17.60;87.40;;;;;;4985554;28;20436;-75
2021/08/06 02:16:54;;;;;;;1.87;1.30;;;17.50;87.80;;;;;;4981116;28;20448;-75
2021/08/06 02:19:24;;;;;;;2.73;1.83;;;17.30;89.30;;;;;;4989506;28;20752;-74
2021/08/06 02:21:53;;;;;;;2.87;1.77;;;17.10;90.10;;;;;;4986223;28;20232;-75
2021/08/06 02:24:21;;;;;;;4.30;1.57;;;17.10;90.40;;;;;;4987868;28;20877;-75
2021/08/06 02:26:48;;;;;;;1.90;1.70;;;17.00;90.60;;;;;;4989948;28;20475;-75
2021/08/06 02:29:18;;;;;;;2.87;1.80;;;17.00;90.70;;;;;;4985061;28;20453;-74
2021/08/06 02:31:46;;;;;;;3.73;1.93;;;17.00;90.50;;;;;;4988191;28;20424;-74
2021/08/06 02:34:14;;;;;;;5.87;2.40;;;17.00;90.40;;;;;;4983612;28;20425;-74
2021/08/06 02:36:40;;;;;;;4.50;2.10;;;17.00;90.60;;;;;;4987775;28;20430;-75
2021/08/06 02:39:13;;;;;;;3.37;1.63;;;17.10;90.30;;;;;;4989709;28;20821;-75
2021/08/06 02:41:39;;;;;;;2.43;1.87;;;17.10;90.10;;;;;;4990475;28;20467;-75
2021/08/06 02:44:08;;;;;;;3.30;1.90;;;17.10;90.10;;;;;;4991449;28;20492;-75
2021/08/06 02:46:34;;;;;;;2.70;1.80;;;17.20;89.60;;;;;;4984223;28;20697;-74
2021/08/06 02:49:00;;;;;;;2.40;1.50;;;17.30;87.80;;;;;;4990511;28;20528;-74
2021/08/06 02:51:26;;;;;;;4.57;2.27;;;17.40;87.40;;;;;;4992332;28;20418;-74
2021/08/06 02:53:51;;;;;;;3.30;1.83;;;17.50;87.80;;;;;;4988780;28;20293;-75
2021/08/06 02:56:17;;;;;;;4.63;2.23;;;17.50;87.70;;;;;;4992177;28;20213;-76
2021/08/06 02:58:43;;;;;;;1.90;1.73;;;17.60;87.60;;;;;;4986306;28;20245;-74
2021/08/06 03:01:09;;;;;;;2.50;1.90;;;17.60;87.10;;;;;;4993456;28;20556;-74
2021/08/06 03:03:34;;;;;;;3.70;2.30;;;17.60;86.90;;;;;;4987185;28;20262;-74
2021/08/06 03:06:00;;;;;;;2.00;1.83;;;17.60;86.80;;;;;;4992735;28;20676;-75
2021/08/06 03:08:26;;;;;;;2.57;2.23;;;17.60;87.00;;;;;;4990489;28;21064;-74
2021/08/06 03:10:51;;;;;;;2.43;1.83;;;17.60;86.60;;;;;;4991597;28;20209;-75
2021/08/06 03:13:17;;;;;;;2.83;1.90;;;17.70;85.90;;;;;;4980367;28;20669;-74
2021/08/06 03:15:43;;;;;;;2.63;1.70;;;17.70;86.50;;;;;;4985633;28;20644;-75
2021/08/06 03:18:11;;;;;;;2.57;1.70;;;17.70;86.20;;;;;;4987010;28;20443;-75
2021/08/06 03:20:38;;;;;;;2.33;1.70;;;17.70;86.50;;;;;;4984859;28;20179;-74
2021/08/06 03:23:04;;;;;;;3.40;1.70;;;17.70;86.80;;;;;;4985491;28;20797;-73
2021/08/06 03:25:29;;;;;;;3.20;1.93;;;17.70;86.80;;;;;;4983905;28;20456;-73
2021/08/06 03:27:56;;;;;;;2.63;1.67;;;17.60;87.30;;;;;;4983652;28;20501;-75
2021/08/06 03:30:22;;;;;;;6.70;2.20;;;17.50;87.80;;;;;;4989003;28;20186;-75
2021/08/06 03:32:48;;;;;;;2.77;1.83;;;17.40;88.30;;;;;;4981480;28;20456;-75
2021/08/06 03:35:14;;;;;;;2.70;2.03;;;17.30;88.70;;;;;;4985720;28;20432;-75
2021/08/06 03:37:41;;;;;;;3.00;1.93;;;17.30;88.70;;;;;;4986000;28;20515;-75
2021/08/06 03:40:08;;;;;;;2.90;1.73;;;17.30;88.70;;;;;;4987535;28;20209;-74
2021/08/06 03:42:34;;;;;;;4.60;2.50;;;17.30;88.40;;;;;;4984506;28;20550;-74
2021/08/06 03:44:59;;;;;;;2.70;1.90;;;17.30;88.10;;;;;;4990356;28;20828;-74
2021/08/06 03:47:25;;;;;;;3.07;2.07;;;17.40;86.80;;;;;;4983192;28;20186;-76
2021/08/06 03:49:51;;;;;;;2.57;1.97;;;17.40;86.20;;;;;;4986051;28;20209;-74
2021/08/06 03:52:17;;;;;;;2.50;1.80;;;17.50;85.70;;;;;;4988267;28;20187;-74
2021/08/06 03:54:42;;;;;;;2.10;2.00;;;17.60;85.30;;;;;;4990189;28;20553;-76
2021/08/06 03:57:08;;;;;;;2.80;2.13;;;17.70;84.70;;;;;;4986896;28;20218;-75
2021/08/06 03:59:34;;;;;;;2.37;1.93;;;17.70;84.00;;;;;;4982078;28;20245;-74
2021/08/06 04:02:01;;;;;;;3.47;2.20;;;17.70;83.80;;;;;;4988372;28;20202;-75
2021/08/06 04:04:26;;;;;;;2.70;1.83;;;17.80;83.70;;;;;;4990470;28;20640;-75
2021/08/06 04:06:52;;;;;;;3.57;2.13;;;17.80;83.40;;;;;;4982018;28;20430;-74
2021/08/06 04:09:18;;;;;;;5.13;2.37;;;17.80;83.70;;;;;;4986303;28;20289;-74
2021/08/06 04:11:44;;;;;;;4.00;1.87;;;17.70;83.60;;;;;;4989982;28;20183;-76
2021/08/06 04:14:10;;;;;;;4.00;2.00;;;17.80;83.60;;;;;;4990452;28;20182;-74
2021/08/06 04:16:36;;;;;;;2.83;1.93;;;17.90;83.30;;;;;;4990408;28;20793;-76
2021/08/06 04:19:02;;;;;;;4.30;2.30;;;17.90;82.80;;;;;;4990386;28;20437;-75
2021/08/06 04:21:27;;;;;;;2.53;2.13;;;17.90;84.10;;;;;;4988962;28;20466;-75
2021/08/06 04:23:53;;;;;;;4.70;2.30;;;17.80;84.40;;;;;;4990643;28;20245;-74
2021/08/06 04:26:19;;;;;;;2.70;1.90;;;17.80;84.90;;;;;;4990787;28;20225;-75
2021/08/06 04:28:45;;;;;;;4.90;2.40;;;17.70;85.60;;;;;;4990511;28;20198;-76
2021/08/06 04:31:10;;;;;;;3.50;2.40;;;17.80;85.20;;;;;;4985633;28;20217;-75
2021/08/06 04:33:36;;;;;;;4.70;2.70;;;17.80;85.60;;;;;;4990031;28;20215;-74
2021/08/06 04:36:02;;;;;;;3.17;2.20;;;17.70;86.50;;;;;;4989489;28;20193;-75
2021/08/06 04:38:28;;;;;;;3.27;2.07;;;17.70;86.60;;;;;;4989348;28;20213;-74
2021/08/06 04:40:53;;;;;;;3.40;2.10;;;17.60;87.70;;;;;;4990503;28;20559;-74
2021/08/06 04:43:20;;;;;;;3.23;2.23;;;17.60;88.40;;;;;;4996229;28;20185;-76
2021/08/06 04:45:49;;;;;;;4.50;2.30;;;17.50;89.60;;;;;;4997605;28;20665;-75
2021/08/06 04:48:23;;;;;;;8.07;3.30;;;17.30;90.80;;;;;;4995358;28;20433;-76
2021/08/06 04:50:49;;;;;;;3.50;2.47;;;17.20;91.20;;;;;;4992776;28;20457;-76
2021/08/06 04:53:16;;;;;;;2.40;2.20;;;17.10;91.60;;;;;;4990883;28;20505;-75
2021/08/06 04:55:41;;;;;;;4.13;2.93;;;17.10;91.70;;;;;;4986560;28;20422;-74
2021/08/06 04:58:07;;;;;;;3.97;2.50;;;17.00;92.00;;;;;;4989990;28;20503;-74
2021/08/06 05:00:33;;;;;;;4.20;3.00;;;17.00;92.00;;;;;;4985687;28;20259;-75
2021/08/06 05:02:59;;;;;;;5.10;2.20;;;17.00;92.50;;;;;;4988774;28;20179;-74
2021/08/06 05:05:25;;;;;;;3.40;2.00;;;16.80;92.90;;;;;;4990799;28;20415;-74
2021/08/06 05:07:53;;;;;;;7.17;2.73;;;16.70;93.60;;;;;;4988406;28;20190;-73
2021/08/06 05:10:21;;;;;;;4.03;2.53;;;16.60;94.20;;;;;;4994871;28;20711;-73
2021/08/06 05:12:46;;;;;;;3.77;2.73;;;16.50;94.90;;;;;;4985763;28;20426;-75
2021/08/06 05:15:12;;;;;;;3.90;2.90;;;16.30;95.70;;;;;;4990519;28;20423;-74
2021/08/06 05:17:38;;;;;;;6.40;2.90;;;16.20;96.20;;;;;;4985216;28;20896;-73
2021/08/06 05:20:05;;;;;;;4.50;3.00;;;16.10;96.90;;;;;;4986937;28;20219;-74
2021/08/06 05:22:31;;;;;;;3.93;2.87;;;16.10;97.00;;;;;;4992215;28;20465;-73
2021/08/06 05:24:57;;;;;;;4.00;2.57;;;16.10;97.20;;;;;;4986249;28;20424;-75
2021/08/06 05:27:22;;;;;;;3.27;2.70;;;16.00;97.60;;;;;;4991718;28;20432;-74
2021/08/06 05:29:48;;;;;;;9.33;3.77;;;16.00;98.20;;;;;;4987682;28;20202;-75
2021/08/06 05:32:14;;;;;;;3.80;3.10;;;15.90;98.50;;;;;;4990083;28;20186;-77
2021/08/06 05:34:40;;;;;;;4.20;3.03;;;15.90;98.90;;;;;;4986786;28;20183;-74
2021/08/06 05:37:05;;;;;;;4.23;2.90;;;15.90;99.00;;;;;;4991861;28;20678;-74
2021/08/06 05:39:31;;;;;;;4.60;3.10;;;15.90;99.30;;;;;;4993880;28;20202;-75
2021/08/06 05:41:57;;;;;;;5.10;2.70;;;15.80;99.40;;;;;;4992415;28;20218;-75
2021/08/06 05:44:23;;;;;;;3.17;2.23;;;15.90;99.40;;;;;;4991175;28;20213;-74
2021/08/06 05:46:48;;;;;;;2.80;2.57;;;15.90;98.70;;;;;;4993859;28;20176;-74
2021/08/06 05:49:14;;;;;;;3.10;2.00;;;15.90;98.40;;;;;;4998982;28;20228;-74
2021/08/06 05:51:40;;;;;;;2.97;2.07;;;16.00;97.90;;;;;;5003259;28;20430;-75
2021/08/06 05:54:06;;;;;;;6.30;2.40;;;16.00;98.00;;;;;;4991006;28;20186;-76
2021/08/06 05:56:32;;;;;;;3.13;2.10;;;16.10;97.90;;;;;;4991427;28;20663;-76
2021/08/06 05:58:58;;;;;;;3.40;2.27;;;16.20;97.90;;;;;;4992032;28;20470;-75
2021/08/06 06:01:24;;;;;;;2.83;2.00;;;16.30;97.50;;;;;;4987765;28;20650;-74
2021/08/06 06:03:49;;;;;;;3.07;2.17;;;16.40;96.80;;;;;;4991401;28;20189;-75
2021/08/06 06:06:15;;;;;;;4.20;2.00;;;16.50;96.30;;;;;;4990069;28;20828;-75
2021/08/06 06:08:41;;;;;;;4.03;2.10;;;16.50;96.20;;;;;;4985272;28;20209;-73
2021/08/06 06:11:07;;;;;;;3.67;2.20;;;16.60;96.10;;;;;;4991218;28;20191;-74
2021/08/06 06:13:32;;;;;;;2.77;2.00;;;16.60;96.20;;;;;;4984151;28;20193;-76
2021/08/06 06:15:58;;;;;;;2.70;2.13;;;16.70;96.30;;;;;;4985442;28;20182;-75
2021/08/06 06:18:24;;;;;;;3.27;2.50;;;16.80;96.50;;;;;;4987111;28;20578;-74
2021/08/06 06:20:51;;;;;;;4.10;2.53;;;16.80;96.40;;;;;;4990857;28;20186;-74
2021/08/06 06:23:18;;;;;;;4.67;2.60;;;16.80;96.50;;;;;;4989224;28;20578;-75
2021/08/06 06:25:44;;;;;;;4.40;2.60;;;16.70;96.70;;;;;;4991340;28;20559;-75
2021/08/06 06:28:10;;;;;;;4.03;2.70;;;16.70;96.80;;;;;;4990634;28;20999;-75
2021/08/06 06:30:36;;;;;;;4.07;2.77;;;16.70;97.10;;;;;;4990888;28;20199;-73
2021/08/06 06:33:03;;;;;;;4.87;2.77;;;16.70;97.10;;;;;;4989652;28;20184;-74
2021/08/06 06:35:30;;;;;;;4.03;2.73;;;16.80;97.10;;;;;;4982897;28;20410;-75
2021/08/06 06:37:56;;;;;;;3.90;3.03;;;16.80;97.00;;;;;;4990450;28;20465;-75
2021/08/06 06:40:23;;;;;;;6.43;3.10;;;16.80;96.90;;;;;;4989247;28;20440;-75
2021/08/06 06:42:49;;;;;;;3.77;2.50;;;16.80;96.90;;;;;;4983959;28;20613;-74
2021/08/06 06:45:18;;;;;;;3.83;3.00;;;16.90;96.60;;;;;;4990961;28;20915;-74
2021/08/06 06:47:46;;;;;;;7.77;3.00;;;16.90;96.60;;;;;;4997197;28;20472;-75
2021/08/06 06:50:14;;;;;;;6.23;3.00;;;16.80;96.60;;;;;;4987450;28;20441;-74
2021/08/06 06:52:41;;;;;;;9.83;2.70;;;16.80;96.80;;;;;;4990767;28;20436;-74
2021/08/06 06:55:08;;;;;;;4.57;3.00;;;16.80;96.30;;;;;;4983411;28;20516;-75
2021/08/06 06:57:54;;;;;;;4.33;2.90;;;16.80;96.40;;;;;;4990759;28;20476;-75
2021/08/06 07:00:23;;;;;;;4.63;3.17;;;16.80;96.30;;;;;;4983437;28;20417;-75
2021/08/06 07:02:48;;;;;;;8.50;2.70;;;16.90;96.20;;;;;;4985575;28;20570;-75
2021/08/06 07:05:16;;;;;;;4.17;3.00;;;17.00;96.20;;;;;;4989675;28;20417;-75
2021/08/06 07:07:42;;;;;;;3.03;2.37;;;17.10;95.90;;;;;;4983080;28;20272;-75
2021/08/06 07:10:08;;;;;;;5.10;3.37;;;17.30;96.00;;;;;;4990605;28;20628;-74
2021/08/06 07:12:38;;;;;;;3.33;2.43;;;17.60;95.80;;;;;;4990963;28;20213;-74
2021/08/06 07:15:05;;;;;;;2.80;2.17;;;17.80;94.80;;;;;;4988128;28;20402;-75
2021/08/06 07:17:32;;;;;;;4.63;2.53;;;18.00;94.10;;;;;;4991518;28;20865;-72
2021/08/06 07:19:58;;;;;;;2.90;2.10;;;18.10;93.20;;;;;;4984911;28;20988;-75
2021/08/06 07:22:25;;;;;;;5.23;2.13;;;18.20;93.10;;;;;;4987216;28;20662;-74
2021/08/06 07:24:50;;;;;;;3.60;1.90;;;18.30;93.00;;;;;;4981598;28;20435;-76
2021/08/06 07:27:17;;;;;;;4.80;2.30;;;18.40;92.10;;;;;;4988107;28;20428;-74
2021/08/06 07:29:43;;;;;;;2.90;2.23;;;18.40;92.50;;;;;;4991035;28;20565;-74
2021/08/06 07:32:08;;;;;;;2.50;1.97;;;18.50;92.50;;;;;;4990486;28;20460;-76
2021/08/06 07:34:35;;;;;;;4.13;2.20;;;18.70;92.10;;;;;;4989917;28;20422;-75
2021/08/06 07:37:01;;;;;;;2.60;2.03;;;18.70;91.50;;;;;;4990596;28;20275;-72
2021/08/06 07:39:26;;;;;;;2.50;1.73;;;18.80;91.10;;;;;;4986944;28;20532;-74
2021/08/06 07:41:52;;;;;;;3.20;2.37;;;18.80;90.60;;;;;;4985181;28;20207;-75
2021/08/06 07:44:18;;;;;;;4.57;2.33;;;18.80;91.40;;;;;;4990660;28;20211;-75
2021/08/06 07:46:44;;;;;;;5.03;2.20;;;18.70;91.20;;;;;;4990408;28;20448;-76
2021/08/06 07:49:09;;;;;;;4.63;1.90;;;18.80;91.10;;;;;;4988884;28;20202;-74
2021/08/06 07:51:36;;;;;;;4.30;1.97;;;18.90;91.00;;;;;;4990612;28;20262;-74
2021/08/06 07:54:03;;;;;;;3.67;2.03;;;18.90;90.70;;;;;;4987482;28;20180;-75
2021/08/06 07:56:28;;;;;;;3.60;1.77;;;18.80;91.70;;;;;;4983730;28;20566;-74
2021/08/06 07:58:54;;;;;;;7.20;2.60;;;18.50;93.30;;;;;;4991308;28;20488;-74
2021/08/06 08:01:20;;;;;;;5.03;2.70;;;18.20;95.00;;;;;;4990258;28;20217;-75
2021/08/06 08:03:46;;;;;;;4.40;2.57;;;17.90;96.60;;;;;;4990489;28;20206;-76
2021/08/06 08:06:13;;;;;;;3.50;2.20;;;17.70;97.60;;;;;;4988888;28;20931;-75
2021/08/06 08:08:39;;;;;;;2.67;1.80;;;17.40;97.90;;;;;;4983445;28;20481;-74
2021/08/06 08:11:05;;;;;;;3.73;1.80;;;17.20;97.30;;;;;;4983709;28;20432;-75
2021/08/06 08:13:31;;;;;;;2.27;1.60;;;17.00;97.80;;;;;;4987115;28;20786;-74
2021/08/06 08:15:57;;;;;;;4.47;1.60;;;16.90;98.40;;;;;;4989576;28;20688;-74
2021/08/06 08:18:23;;;;;;;3.87;1.73;;;16.80;98.40;;;;;;4986018;28;20810;-74
2021/08/06 08:20:49;;;;;;;4.20;1.90;;;16.70;98.60;;;;;;4986493;28;20523;-74
2021/08/06 08:23:15;;;;;;;2.27;1.93;;;16.70;98.40;;;;;;4989989;28;20217;-74
2021/08/06 08:25:41;;;;;;;7.27;1.80;;;16.60;98.80;;;;;;4985454;28;20183;-75
2021/08/06 08:28:07;;;;;;;3.13;1.80;;;16.60;98.30;;;;;;4987201;28;21095;-76
2021/08/06 08:30:33;;;;;;;2.67;1.80;;;16.80;98.50;;;;;;4992216;28;20213;-75
2021/08/06 08:32:59;;;;;;;4.03;1.67;;;16.90;97.80;;;;;;4987755;28;20524;-74
2021/08/06 08:35:25;;;;;;;1.77;1.27;;;17.00;97.20;;;;;;4990154;28;20190;-75
2021/08/06 08:37:51;;;;;;;2.57;1.70;;;17.20;96.90;;;;;;4991918;28;20543;-74
2021/08/06 08:40:16;;;;;;;1.83;1.43;;;17.20;96.60;;;;;;4991016;28;20435;-73
2021/08/06 08:42:44;;;;;;;2.30;1.47;;;17.30;96.00;;;;;;4990698;28;20668;-76
2021/08/06 08:45:10;;;;;;;2.53;1.40;;;17.40;95.80;;;;;;4982324;28;20237;-74
2021/08/06 08:47:37;;;;;;;3.27;1.50;;;17.60;95.50;;;;;;4992448;28;20516;-75
2021/08/06 08:50:06;;;;;;;4.33;1.70;;;17.70;95.30;;;;;;5001170;28;20437;-74
2021/08/06 08:52:32;;;;;;;2.10;1.20;;;17.90;94.90;;;;;;4997353;28;20468;-75
2021/08/06 08:54:59;;;;;;;1.87;1.33;;;18.20;94.50;;;;;;4989814;28;20470;-74
2021/08/06 08:57:24;;;;;;;1.80;1.50;;;18.30;94.20;;;;;;4989422;28;20512;-75
2021/08/06 08:59:52;;;;;;;4.60;1.50;;;18.50;93.80;;;;;;4988565;28;20549;-74
2021/08/06 09:02:18;;;;;;;3.00;1.37;;;18.70;91.90;;;;;;4986499;28;20464;-76
2021/08/06 09:04:46;;;;;;;6.33;1.20;;;18.90;91.70;;;;;;4992159;28;20423;-75
2021/08/06 09:07:32;;;;;;;5.40;1.23;;;18.90;88.40;;;;;;4983996;28;20178;-75
2021/08/06 09:10:26;;;;;;;2.70;1.40;;;18.90;90.20;;;;;;4982992;28;20607;-74
2021/08/06 09:13:02;;;;;;;7.80;2.23;;;19.00;89.90;;;;;;4984240;28;20517;-75
2021/08/06 09:15:47;;;;;;;2.60;1.60;;;19.20;89.70;;;;;;4982699;28;20425;-75
2021/08/06 09:18:27;;;;;;;2.70;1.20;;;19.20;88.70;;;;;;4992053;28;20555;-74
2021/08/06 09:20:57;;;;;;;2.83;1.33;;;19.30;89.60;;;;;;4989450;28;21009;-75
2021/08/06 09:23:43;;;;;;;4.80;1.40;;;19.50;89.20;;;;;;4985815;28;20518;-75
2021/08/06 09:26:30;;;;;;;4.27;1.60;;;19.80;87.60;;;;;;4985625;28;20419;-74
2021/08/06 09:29:04;;;;;;;2.20;1.60;;;19.80;85.70;;;;;;4983707;28;20442;-74
2021/08/06 09:31:31;;;;;;;3.60;1.77;;;19.70;85.20;;;;;;4986028;28;20422;-76
2021/08/06 09:34:08;;;;;;;3.80;1.53;;;19.60;85.70;;;;;;4987015;28;20595;-74
2021/08/06 09:36:35;;;;;;;2.33;1.20;;;19.50;87.00;;;;;;4987685;28;20532;-74
2021/08/06 09:39:17;;;;;;;3.10;1.47;;;19.50;86.20;;;;;;4991532;28;21007;-75
2021/08/06 09:41:45;;;;;;;1.90;1.37;;;19.60;85.70;;;;;;4994282;28;20835;-75
2021/08/06 09:44:20;;;;;;;1.70;1.30;;;19.70;84.90;;;;;;4993228;28;20437;-77
2021/08/06 09:46:46;;;;;;;2.20;1.40;;;19.80;85.50;;;;;;4995264;28;20448;-75
2021/08/06 09:49:12;;;;;;;2.07;1.53;;;20.00;82.20;;;;;;4991753;28;20463;-73
2021/08/06 09:51:39;;;;;;;2.40;1.50;;;20.00;80.00;;;;;;4985480;28;20183;-74
2021/08/06 09:54:26;;;;;;;2.43;1.50;;;20.10;81.40;;;;;;4987830;28;20441;-75
2021/08/06 09:57:10;;;;;;;3.60;1.70;;;20.20;80.30;;;;;;4990276;28;20496;-75
2021/08/06 09:59:37;;;;;;;2.33;1.50;;;20.10;79.30;;;;;;4978927;28;20844;-75
2021/08/06 10:02:22;;;;;;;1.70;1.30;;;20.00;81.70;;;;;;4992373;28;20465;-72
2021/08/06 10:05:10;;;;;;;2.97;1.60;;;20.20;78.90;;;;;;4978775;28;20410;-75
2021/08/06 10:07:44;;;;;;;2.83;1.40;;;20.30;79.30;;;;;;4980704;28;20460;-73
2021/08/06 10:10:17;;;;;;;1.30;1.10;;;20.60;78.40;;;;;;4987510;28;20812;-74
2021/08/06 10:12:43;;;;;;;1.37;1.30;;;20.90;73.70;;;;;;4991199;28;20489;-78
2021/08/06 10:15:10;;;;;;;2.50;1.33;;;21.00;69.40;;;;;;4991115;28;20430;-74
2021/08/06 10:17:36;;;;;;;4.90;1.60;;;21.20;71.40;;;;;;4992079;28;20423;-73
2021/08/06 10:20:04;;;;;;;1.67;1.67;;;21.50;68.80;;;;;;4985465;28;20450;-75
2021/08/06 10:22:30;;;;;;;2.00;1.13;;;21.10;67.90;;;;;;4976249;28;20879;-73
2021/08/06 10:24:56;;;;;;;5.97;1.20;;;20.90;69.80;;;;;;4984542;28;20426;-73
2021/08/06 10:27:28;;;;;;;2.50;1.40;;;20.90;70.10;;;;;;4989247;28;20194;-75
2021/08/06 10:30:19;;;;;;;2.50;1.70;;;20.90;70.70;;;;;;4987495;28;20484;-74
2021/08/06 10:33:03;;;;;;;3.60;1.40;;;21.00;71.60;;;;;;4984673;28;20505;-74
2021/08/06 10:35:44;;;;;;;6.17;1.60;;;21.10;72.00;;;;;;4984995;28;20430;-76
2021/08/06 10:38:10;;;;;;;2.40;1.47;;;21.20;70.70;;;;;;4992206;28;20921;-73
2021/08/06 10:40:39;;;;;;;4.23;2.30;;;21.10;71.00;;;;;;4992240;28;20826;-75
2021/08/06 10:43:11;;;;;;;2.73;1.80;;;21.00;70.80;;;;;;4990155;28;20556;-73
2021/08/06 10:45:46;;;;;;;2.33;1.60;;;21.00;71.80;;;;;;4994069;28;20433;-75
2021/08/06 10:48:31;;;;;;;1.83;1.40;;;21.10;72.40;;;;;;4990456;28;20756;-75
2021/08/06 10:51:17;;;;;;;2.60;1.50;;;21.40;71.40;;;;;;4987510;28;21076;-75
2021/08/06 10:53:46;;;;;;;2.50;1.47;;;21.50;70.70;;;;;;4991583;28;20422;-74
2021/08/06 10:56:19;;;;;;;2.23;1.40;;;21.70;71.00;;;;;;5000024;28;20417;-74
2021/08/06 10:58:51;;;;;;;2.27;1.67;;;21.80;70.40;;;;;;4991390;28;20463;-75
2021/08/06 11:01:38;;;;;;;2.63;1.53;;;21.90;69.50;;;;;;4990505;28;20549;-73
2021/08/06 11:04:25;;;;;;;3.60;1.73;;;21.60;69.50;;;;;;4987656;28;20497;-73
2021/08/06 11:06:53;;;;;;;2.90;1.97;;;21.50;71.00;;;;;;4989765;28;20434;-73
2021/08/06 11:09:25;;;;;;;2.00;1.43;;;21.40;71.70;;;;;;4990689;28;20491;-75
2021/08/06 11:12:06;;;;;;;2.90;1.30;;;21.10;71.70;;;;;;4990478;28;20418;-75
2021/08/06 11:14:34;;;;;;;4.20;1.57;;;21.00;71.70;;;;;;4990634;28;20410;-75
2021/08/06 11:17:15;;;;;;;2.20;1.10;;;20.60;71.70;;;;;;4989710;28;20434;-72
2021/08/06 11:19:46;;;;;;;2.60;1.60;;;20.50;72.40;;;;;;4990413;28;20541;-72
2021/08/06 11:22:17;;;;;;;2.77;2.00;;;20.50;73.20;;;;;;4989212;28;20473;-73
2021/08/06 11:24:44;;;;;;;4.10;1.80;;;20.70;73.50;;;;;;4990286;28;20422;-73
2021/08/06 11:27:12;;;;;;;3.23;1.47;;;20.90;72.70;;;;;;4991489;28;20422;-73
2021/08/06 11:29:39;;;;;;;2.27;1.30;;;21.20;71.60;;;;;;4990345;28;20940;-72
2021/08/06 11:32:08;;;;;;;2.80;1.30;;;21.50;69.80;;;;;;4990258;28;20500;-73
2021/08/06 11:35:02;;;;;;;4.80;2.00;;;21.60;69.20;;;;;;4990280;28;20425;-73
2021/08/06 11:38:05;;;;;;;2.20;1.67;;;21.70;69.80;;;;;;4990407;28;20438;-74
2021/08/06 11:40:50;;;;;;;1.70;1.20;;;21.90;69.20;;;;;;4984857;28;20435;-72
2021/08/06 11:43:19;;;;;;;4.90;1.70;;;21.90;67.60;;;;;;4990474;28;20925;-73
2021/08/06 11:45:47;;;;;;;3.07;1.50;;;21.60;67.60;;;;;;4991019;28;20440;-74
2021/08/06 11:48:13;;;;;;;1.90;1.40;;;21.50;69.10;;;;;;4991067;28;21006;-72
2021/08/06 11:50:41;;;;;;;4.50;1.50;;;21.70;68.50;;;;;;4991473;28;20516;-72
2021/08/06 11:53:19;;;;;;;3.00;1.20;;;21.80;67.50;;;;;;5005695;28;20461;-73
2021/08/06 11:55:49;;;;;;;1.30;1.10;;;21.60;67.20;;;;;;4993810;28;20447;-72
2021/08/06 11:58:27;;;;;;;3.13;1.40;;;21.40;68.60;;;;;;4990734;28;20469;-73
2021/08/06 12:00:53;;;;;;;2.00;1.27;;;21.40;67.60;;;;;;4987838;28;20572;-72
2021/08/06 12:03:18;;;;;;;3.23;1.53;;;21.20;67.70;;;;;;4988726;28;20564;-73
2021/08/06 12:05:48;;;;;;;1.60;1.30;;;21.20;67.90;;;;;;4990671;28;20231;-73
2021/08/06 12:08:22;;;;;;;2.10;1.30;;;21.20;67.30;;;;;;4987210;28;20269;-73
2021/08/06 12:10:54;;;;;;;1.83;1.10;;;21.20;67.50;;;;;;4990241;28;20829;-73
2021/08/06 12:13:23;;;;;;;2.13;1.17;;;21.30;67.30;;;;;;4987212;28;20505;-72
2021/08/06 12:16:02;;;;;;;1.30;0.93;;;21.30;67.20;;;;;;4989274;28;20419;-73
2021/08/06 12:18:29;;;;;;;1.60;1.20;;;21.20;66.60;;;;;;4992882;28;20500;-74
2021/08/06 12:20:58;;;;;;;2.00;1.50;;;21.30;66.70;;;;;;4986163;28;20525;-73
2021/08/06 12:23:25;;;;;;;2.93;1.50;;;21.90;65.60;;;;;;4986297;28;20530;-73
2021/08/06 12:26:23;;;;;;;2.00;1.40;;;22.50;62.90;;;;;;4987691;28;20431;-72
2021/08/06 12:28:52;;;;;;;2.30;1.33;;;22.80;60.70;;;;;;4983020;28;20439;-72
2021/08/06 12:31:26;;;;;;;2.33;1.47;;;22.80;61.30;;;;;;4988116;28;20823;-72
2021/08/06 12:34:24;;;;;;;2.43;1.10;;;22.60;61.60;;;;;;4985803;28;20533;-74
2021/08/06 12:37:08;;;;;;;2.47;1.53;;;22.60;61.70;;;;;;4982099;28;20435;-71
2021/08/06 12:39:49;;;;;;;3.03;1.43;;;23.00;60.70;;;;;;4993249;28;20505;-74
2021/08/06 12:42:20;;;;;;;3.37;2.07;;;22.90;61.30;;;;;;4993374;28;20468;-73
2021/08/06 12:44:55;;;;;;;2.03;1.23;;;23.10;60.40;;;;;;4993307;28;20435;-72
2021/08/06 12:47:21;;;;;;;3.03;1.60;;;23.20;59.90;;;;;;4993326;28;20944;-73
2021/08/06 12:49:58;;;;;;;1.40;1.20;;;23.10;59.10;;;;;;4988793;28;20846;-74
2021/08/06 12:52:26;;;;;;;2.53;1.53;;;23.30;59.20;;;;;;4982090;28;20430;-73
2021/08/06 12:54:55;;;;;;;2.57;1.60;;;23.50;58.50;;;;;;4987886;28;20432;-72
2021/08/06 12:57:50;;;;;;;2.00;1.30;;;23.60;59.50;;;;;;4989623;28;20526;-73